Rothschild, WI (54474)

10:44 AM CDT on May 22, 2015 (GMT -0500)
Knopf's House | | Change Station
CLOSE
Current Station
Personal Weather Station
Location: Weston, WI
Elevation: 1214 ft
Nearby Weather Stations

Elev 1214 ft 44.91 °N, 89.55 °W | Updated 10 minutes ago

Clear
Clear
64.4 °F
Feels Like 64.4 °F
N
3.2
Wind Variable Wind from West

Today
High -- | Low -- °F
--% Chance of Precip.
Yesterday
High -- | Low -- °F
Precip. -- in
5:22 AM 8:27 PM
Waxing Crescent, 22% visible
Pressure 30.23 in
Visibility 10.0 miles
Clouds Clear
Dew Point 37 °F
Humidity 36%
Rainfall 0.00 in
Snow Depth Not available.
UV 6 out of 12
Pollen 8.90 out of 12
Air Quality Not available.
Flu Activity Sporadic
METAR KAUW 221454Z AUTO 20003KT 10SM CLR 14/01 A3021 RMK AO2 SLP236 T01390006 51008

More Conditions Fewer Conditions

Pressure 30.23 in
Visibility 10.0 miles
Clouds Clear
Dew Point 37 °F
Humidity 36%
Rainfall 0.00 in
Snow Depth Not available.
UV 6 out of 12
Pollen 8.90 out of 12
Air Quality Not available.
Flu Activity Sporadic
METAR KAUW 221454Z AUTO 20003KT 10SM CLR 14/01 A3021 RMK AO2 SLP236 T01390006 51008

More Conditions Fewer Conditions

10-Day Weather Forecast

Almanac

Astronomy

May. 22, 2015 Rise Set
Actual Time
Civil Twilight
Nautical Twilight
Astronomical Twilight
Moon
Length of Visible Light
Length of Day
Tomorrow will be .
, % of the Moon is Illuminated

Today's Extremes

State Highs State Lows

Community

WunderPhotos

Upload Photos

1,823,245 photos uploaded!

WunderBlogs® & News

Nearby

Air Quality

  Air Quality AQ Index Pollutant
Not available.

Snow Depth

Station Depth Elevation

Earthquake Activity

City Distance Mag. Time & Date
Minimum magnitude displayed is 2.5.

Coastal Water Temperatures

Place Temperature

Stations

Nearby Weather Stations

Station Location Temp. Windchill Dew Point Humidity Wind Precip. Elev Updated Type